馬祖南竿航空站 - ATIS

METAR RCFG 040200Z 02016KT 9999 FEW011 BKN030 14/08 Q1023 NOSIG RMK 04021KT/R21 MAX WND 22KT/R03 02017G27KT/NJL A3021(R)=

站台狀態:Offline
最後更新:2020-04-04 10:30:02